createdAt,value
2019-03-05T00:01:20.270Z,4.60
2019-03-05T00:03:46.737Z,4.43
2019-03-05T00:06:14.812Z,5.37
2019-03-05T00:08:41.145Z,3.47
2019-03-05T00:11:07.675Z,4.07
2019-03-05T00:13:37.938Z,3.73
2019-03-05T00:16:04.465Z,5.40
2019-03-05T00:18:38.094Z,5.17
2019-03-05T00:21:04.575Z,5.93
2019-03-05T00:23:43.422Z,3.80
2019-03-05T00:26:10.013Z,5.13
2019-03-05T00:28:43.281Z,3.90
2019-03-05T00:31:13.626Z,5.00
2019-03-05T00:33:47.779Z,4.77
2019-03-05T00:36:20.782Z,4.47
2019-03-05T00:39:12.187Z,4.37
2019-03-05T00:41:42.883Z,6.73
2019-03-05T00:44:33.524Z,8.87
2019-03-05T00:47:22.962Z,6.40
2019-03-05T00:50:07.983Z,5.23
2019-03-05T00:52:54.726Z,6.60
2019-03-05T00:55:30.814Z,6.93
2019-03-05T00:58:16.159Z,5.13
2019-03-05T01:01:11.907Z,7.43
2019-03-05T01:04:04.899Z,5.80
2019-03-05T01:06:32.113Z,6.70
2019-03-05T01:09:00.602Z,5.57
2019-03-05T01:11:28.496Z,6.87
2019-03-05T01:13:55.204Z,7.03
2019-03-05T01:16:23.885Z,9.00
2019-03-05T01:18:50.168Z,5.07
2019-03-05T01:21:16.494Z,6.10
2019-03-05T01:23:42.873Z,5.60
2019-03-05T01:26:09.564Z,9.17
2019-03-05T01:28:37.351Z,10.33
2019-03-05T01:31:05.520Z,7.77
2019-03-05T01:33:39.577Z,5.10
2019-03-05T01:36:10.371Z,5.30
2019-03-05T01:38:38.652Z,6.13
2019-03-05T01:41:06.860Z,9.57
2019-03-05T01:43:33.212Z,6.73
2019-03-05T01:45:59.412Z,5.70
2019-03-05T01:48:25.712Z,7.27
2019-03-05T01:50:52.172Z,7.90
2019-03-05T01:53:18.323Z,7.83
2019-03-05T01:55:44.642Z,8.23
2019-03-05T01:58:11.184Z,7.33
2019-03-05T02:00:37.855Z,8.57
2019-03-05T02:03:04.448Z,5.57
2019-03-05T02:05:31.163Z,7.67
2019-03-05T02:07:57.603Z,12.97
2019-03-05T02:10:24.031Z,8.20
2019-03-05T02:12:50.280Z,7.17
2019-03-05T02:15:17.074Z,5.70
2019-03-05T02:17:43.820Z,8.40
2019-03-05T02:20:16.921Z,8.60
2019-03-05T02:22:46.109Z,8.10
2019-03-05T02:25:43.391Z,8.43
2019-03-05T02:28:27.388Z,6.20
2019-03-05T02:31:03.653Z,9.20
2019-03-05T02:33:36.493Z,7.40
2019-03-05T02:36:30.862Z,10.10
2019-03-05T02:39:21.458Z,6.73
2019-03-05T02:42:06.010Z,8.20
2019-03-05T02:45:10.146Z,7.20
2019-03-05T02:47:49.237Z,6.57
2019-03-05T02:50:28.217Z,5.10
2019-03-05T02:53:13.405Z,8.30
2019-03-05T02:56:17.968Z,8.90
2019-03-05T02:58:43.880Z,4.63
2019-03-05T03:01:28.978Z,3.67
2019-03-05T03:03:57.109Z,5.63
2019-03-05T03:06:25.475Z,6.87
2019-03-05T03:08:55.559Z,7.00
2019-03-05T03:11:22.193Z,4.97
2019-03-05T03:13:48.449Z,6.53
2019-03-05T03:16:15.096Z,6.27
2019-03-05T03:18:43.533Z,8.57
2019-03-05T03:21:09.890Z,6.97
2019-03-05T03:23:36.144Z,10.13
2019-03-05T03:26:04.701Z,4.23
2019-03-05T03:28:31.099Z,4.13
2019-03-05T03:30:57.498Z,4.23
2019-03-05T03:33:23.817Z,3.40
2019-03-05T03:35:51.229Z,5.17
2019-03-05T03:38:17.885Z,4.40
2019-03-05T03:40:44.088Z,8.53
2019-03-05T03:43:10.498Z,6.13
2019-03-05T03:45:36.974Z,6.63
2019-03-05T03:48:07.493Z,5.23
2019-03-05T03:50:33.870Z,6.83
2019-03-05T03:53:00.194Z,3.53
2019-03-05T03:55:28.424Z,3.30
2019-03-05T03:57:56.283Z,5.47
2019-03-05T04:00:25.226Z,5.07
2019-03-05T04:02:51.663Z,2.20
2019-03-05T04:05:18.092Z,1.70
2019-03-05T04:07:44.534Z,2.10
2019-03-05T04:10:13.679Z,2.93
2019-03-05T04:12:40.404Z,1.37
2019-03-05T04:15:11.123Z,1.27
2019-03-05T04:17:37.557Z,1.00
2019-03-05T04:20:06.113Z,1.43
2019-03-05T04:22:32.378Z,1.10
2019-03-05T04:24:58.605Z,0.90
2019-03-05T04:27:24.858Z,0.93
2019-03-05T04:29:51.168Z,0.70
2019-03-05T04:32:17.513Z,1.33
2019-03-05T04:34:47.594Z,1.93
2019-03-05T04:37:13.760Z,0.90
2019-03-05T04:39:40.011Z,1.17
2019-03-05T04:42:08.141Z,1.30
2019-03-05T04:44:36.305Z,2.10
2019-03-05T04:47:05.637Z,1.50
2019-03-05T04:49:45.411Z,2.10
2019-03-05T04:52:13.696Z,2.70
2019-03-05T04:54:42.598Z,2.00
2019-03-05T04:57:08.894Z,4.67
2019-03-05T04:59:35.140Z,2.20
2019-03-05T05:02:01.519Z,3.23
2019-03-05T05:04:30.028Z,3.60
2019-03-05T05:06:56.561Z,4.67
2019-03-05T05:09:22.862Z,5.93
2019-03-05T05:11:49.387Z,4.60
2019-03-05T05:14:15.729Z,4.70
2019-03-05T05:16:41.909Z,3.67
2019-03-05T05:19:08.591Z,4.07
2019-03-05T05:21:35.072Z,6.27
2019-03-05T05:24:04.064Z,6.50
2019-03-05T05:26:30.396Z,5.37
2019-03-05T05:28:56.687Z,3.67
2019-03-05T05:31:23.223Z,3.87
2019-03-05T05:33:49.492Z,6.50
2019-03-05T05:36:15.682Z,3.87
2019-03-05T05:38:41.808Z,5.43
2019-03-05T05:41:08.174Z,4.87
2019-03-05T05:43:34.742Z,4.00
2019-03-05T05:46:01.111Z,2.87
2019-03-05T05:48:27.307Z,2.53
2019-03-05T05:50:53.586Z,4.47
2019-03-05T05:53:19.966Z,3.80
2019-03-05T05:55:46.631Z,4.80
2019-03-05T05:58:14.551Z,5.37
2019-03-05T06:00:42.994Z,4.67
2019-03-05T06:03:09.430Z,4.90
2019-03-05T06:05:35.554Z,4.63
2019-03-05T06:08:02.298Z,4.63
2019-03-05T06:10:28.499Z,6.10
2019-03-05T06:12:54.662Z,3.87
2019-03-05T06:15:20.921Z,5.03
2019-03-05T06:17:47.221Z,5.63
2019-03-05T06:20:17.246Z,4.53
2019-03-05T06:22:43.595Z,4.13
2019-03-05T06:25:14.422Z,7.10
2019-03-05T06:27:40.780Z,4.63
2019-03-05T06:30:15.315Z,4.90
2019-03-05T06:32:41.585Z,8.37
2019-03-05T06:35:08.290Z,6.63
2019-03-05T06:37:34.743Z,11.70
2019-03-05T06:40:01.641Z,10.50
2019-03-05T06:42:27.788Z,4.63
2019-03-05T06:44:53.938Z,8.13
2019-03-05T06:47:20.161Z,4.07
2019-03-05T06:49:46.520Z,4.07
2019-03-05T06:52:12.810Z,5.17
2019-03-05T06:54:39.153Z,3.30
2019-03-05T06:57:06.349Z,4.13
2019-03-05T06:59:32.814Z,5.57
2019-03-05T07:01:59.241Z,2.37
2019-03-05T07:04:25.516Z,3.23
2019-03-05T07:06:54.762Z,3.10
2019-03-05T07:09:30.569Z,2.50
2019-03-05T07:12:12.319Z,3.47
2019-03-05T07:14:59.092Z,4.87
2019-03-05T07:17:47.066Z,4.43
2019-03-05T07:20:43.143Z,3.83
2019-03-05T07:23:19.004Z,2.77
2019-03-05T07:25:45.179Z,4.67
2019-03-05T07:28:12.108Z,3.63
2019-03-05T07:30:38.369Z,3.43
2019-03-05T07:33:04.690Z,3.23
2019-03-05T07:35:32.044Z,3.00
2019-03-05T07:37:58.444Z,3.17
2019-03-05T07:40:24.710Z,3.70
2019-03-05T07:42:50.941Z,3.57
2019-03-05T07:45:18.070Z,5.40
2019-03-05T07:47:44.178Z,4.57
2019-03-05T07:50:11.357Z,3.63
2019-03-05T07:52:37.617Z,2.97
2019-03-05T07:55:13.508Z,3.27
2019-03-05T07:57:39.785Z,3.87
2019-03-05T08:00:11.797Z,5.23
2019-03-05T08:02:38.029Z,2.77
2019-03-05T08:05:05.529Z,4.53
2019-03-05T08:07:32.111Z,4.77
2019-03-05T08:10:03.172Z,5.83
2019-03-05T08:12:42.102Z,6.07
2019-03-05T08:15:20.438Z,3.97
2019-03-05T08:17:47.557Z,4.40
2019-03-05T08:20:13.867Z,3.83
2019-03-05T08:22:40.242Z,3.70
2019-03-05T08:25:09.799Z,4.50
2019-03-05T08:27:36.360Z,5.43
2019-03-05T08:30:14.233Z,4.77
2019-03-05T08:32:34.117Z,3.80
2019-03-05T08:35:00.406Z,5.60
2019-03-05T08:37:26.633Z,2.97
2019-03-05T08:39:52.856Z,4.87
2019-03-05T08:42:19.014Z,4.10
2019-03-05T08:44:50.552Z,3.47
2019-03-05T08:47:14.201Z,3.83
2019-03-05T08:49:40.536Z,3.47
2019-03-05T08:52:06.920Z,2.70
2019-03-05T08:54:33.033Z,3.07
2019-03-05T08:56:59.258Z,2.70
2019-03-05T08:59:25.539Z,3.77
2019-03-05T09:01:51.829Z,3.10
2019-03-05T09:04:18.179Z,3.83
2019-03-05T09:06:44.524Z,2.60
2019-03-05T09:09:14.014Z,3.20
2019-03-05T09:11:40.248Z,2.83
2019-03-05T09:14:07.072Z,3.17
2019-03-05T09:16:33.830Z,3.30
2019-03-05T09:19:01.646Z,3.00
2019-03-05T09:21:27.960Z,3.57
2019-03-05T09:23:54.261Z,3.60
2019-03-05T09:26:20.561Z,3.63
2019-03-05T09:28:46.945Z,4.77
2019-03-05T09:31:15.102Z,4.60
2019-03-05T09:33:41.202Z,5.53
2019-03-05T09:36:07.525Z,4.20
2019-03-05T09:38:33.679Z,3.67
2019-03-05T09:40:59.800Z,3.43
2019-03-05T09:43:25.917Z,2.83
2019-03-05T09:45:52.308Z,2.77
2019-03-05T09:48:18.434Z,3.53
2019-03-05T09:50:44.604Z,3.77
2019-03-05T09:53:11.118Z,3.07
2019-03-05T09:55:37.647Z,3.50
2019-03-05T09:58:08.241Z,4.60
2019-03-05T10:00:33.125Z,7.60
2019-03-05T10:02:59.362Z,4.00
2019-03-05T10:05:25.727Z,4.53
2019-03-05T10:07:52.053Z,2.80
2019-03-05T10:10:23.635Z,8.27
2019-03-05T10:12:50.098Z,3.00
2019-03-05T10:15:21.673Z,5.70
2019-03-05T10:17:50.000Z,3.27
2019-03-05T10:20:18.613Z,3.57
2019-03-05T10:22:47.631Z,2.80
2019-03-05T10:25:16.112Z,6.10
2019-03-05T10:27:42.750Z,4.10
2019-03-05T10:30:24.315Z,8.77
2019-03-05T10:32:43.711Z,6.60
2019-03-05T10:35:10.234Z,4.63
2019-03-05T10:37:36.458Z,5.07
2019-03-05T10:40:05.833Z,6.40
2019-03-05T10:42:32.180Z,9.57
2019-03-05T10:44:58.476Z,4.27
2019-03-05T10:47:24.711Z,5.53
2019-03-05T10:49:50.936Z,4.60
2019-03-05T10:52:17.112Z,4.10
2019-03-05T10:54:43.323Z,3.13
2019-03-05T10:57:10.051Z,3.27
2019-03-05T10:59:36.248Z,4.20
2019-03-05T11:02:02.672Z,4.20
2019-03-05T11:04:29.700Z,4.40
2019-03-05T11:06:56.023Z,4.93
2019-03-05T11:09:22.334Z,4.60
2019-03-05T11:11:48.470Z,5.33
2019-03-05T11:14:14.724Z,5.87
2019-03-05T11:16:40.931Z,6.73
2019-03-05T11:19:07.763Z,6.07
2019-03-05T11:21:33.945Z,5.30
2019-03-05T11:24:00.275Z,6.77
2019-03-05T11:26:26.376Z,5.77
2019-03-05T11:28:54.607Z,6.37
2019-03-05T11:31:20.724Z,7.23
2019-03-05T11:33:46.986Z,8.27
2019-03-05T11:36:13.310Z,9.13
2019-03-05T11:38:39.649Z,6.70
2019-03-05T11:41:05.965Z,6.77
2019-03-05T11:43:32.264Z,6.20
2019-03-05T11:45:58.788Z,6.53
2019-03-05T11:48:24.955Z,6.20
2019-03-05T11:50:51.727Z,6.73
2019-03-05T11:53:18.243Z,7.37
2019-03-05T11:55:44.391Z,7.20
2019-03-05T11:58:10.858Z,7.37
2019-03-05T12:00:39.206Z,7.07
2019-03-05T12:03:05.641Z,6.60
2019-03-05T12:05:31.877Z,6.97
2019-03-05T12:07:58.167Z,6.20
2019-03-05T12:10:25.243Z,6.47
2019-03-05T12:12:51.538Z,6.20
2019-03-05T12:15:19.582Z,5.97
2019-03-05T12:17:45.897Z,5.50
2019-03-05T12:20:13.419Z,5.90
2019-03-05T12:22:39.685Z,6.17
2019-03-05T12:25:16.927Z,7.53
2019-03-05T12:27:43.214Z,7.30
2019-03-05T12:30:13.226Z,7.93
2019-03-05T12:32:39.493Z,7.60
2019-03-05T12:35:07.839Z,6.87
2019-03-05T12:37:34.032Z,7.20
2019-03-05T12:40:00.379Z,8.40
2019-03-05T12:42:26.583Z,6.83
2019-03-05T12:44:52.827Z,7.57
2019-03-05T12:47:19.137Z,7.27
2019-03-05T12:49:45.275Z,8.10
2019-03-05T12:52:11.782Z,7.50
2019-03-05T12:54:40.037Z,6.57
2019-03-05T12:57:06.582Z,6.37
2019-03-05T12:59:32.888Z,6.50
2019-03-05T13:01:59.127Z,6.87
2019-03-05T13:04:25.262Z,6.20
2019-03-05T13:06:51.639Z,6.83
2019-03-05T13:09:19.515Z,7.17
2019-03-05T13:11:46.619Z,7.20
2019-03-05T13:14:13.960Z,7.10
2019-03-05T13:16:40.758Z,8.97
2019-03-05T13:19:09.555Z,7.13
2019-03-05T13:21:35.166Z,8.50
2019-03-05T13:24:01.293Z,7.17
2019-03-05T13:26:27.435Z,7.50
2019-03-05T13:28:53.726Z,5.70
2019-03-05T13:31:19.947Z,6.27
2019-03-05T13:33:46.236Z,8.53
2019-03-05T13:36:13.432Z,8.57
2019-03-05T13:38:41.772Z,8.47
2019-03-05T13:41:07.765Z,5.60
2019-03-05T13:43:33.978Z,9.40
2019-03-05T13:46:00.283Z,6.63
2019-03-05T13:48:30.240Z,6.77
2019-03-05T13:51:23.134Z,9.37
2019-03-05T13:54:09.409Z,6.40
2019-03-05T13:56:54.770Z,5.73
2019-03-05T13:59:46.102Z,7.87
2019-03-05T14:02:15.347Z,5.33
2019-03-05T14:05:03.311Z,4.83
2019-03-05T14:08:05.273Z,4.03
2019-03-05T14:10:31.509Z,4.13
2019-03-05T14:12:57.834Z,4.90
2019-03-05T14:15:24.463Z,5.23
2019-03-05T14:17:50.695Z,7.23
2019-03-05T14:20:17.050Z,5.37
2019-03-05T14:22:43.368Z,4.30
2019-03-05T14:25:12.363Z,6.83
2019-03-05T14:27:38.726Z,4.90
2019-03-05T14:30:16.896Z,4.57
2019-03-05T14:32:43.329Z,5.77
2019-03-05T14:35:11.177Z,5.50
2019-03-05T14:37:37.723Z,3.40
2019-03-05T14:40:23.552Z,6.33
2019-03-05T14:42:36.114Z,6.60
2019-03-05T14:45:04.990Z,5.23
2019-03-05T14:47:31.257Z,4.23
2019-03-05T14:49:57.396Z,3.57
2019-03-05T14:52:23.656Z,6.37
2019-03-05T14:54:49.970Z,3.67
2019-03-05T14:57:16.176Z,4.43
2019-03-05T14:59:42.443Z,3.40
2019-03-05T15:02:08.836Z,3.80
2019-03-05T15:04:35.250Z,3.93
2019-03-05T15:07:02.549Z,5.87
2019-03-05T15:09:29.545Z,5.70
2019-03-05T15:11:55.907Z,5.27
2019-03-05T15:14:22.108Z,4.97
2019-03-05T15:16:48.349Z,3.57
2019-03-05T15:19:21.474Z,3.00
2019-03-05T15:21:42.726Z,4.67
2019-03-05T15:24:08.883Z,3.13
2019-03-05T15:26:36.093Z,5.40
2019-03-05T15:29:02.239Z,4.20
2019-03-05T15:31:28.591Z,5.07
2019-03-05T15:33:54.759Z,4.40
2019-03-05T15:36:23.985Z,6.33
2019-03-05T15:38:49.304Z,3.80
2019-03-05T15:41:15.583Z,2.50
2019-03-05T15:43:41.961Z,7.67
2019-03-05T15:46:08.236Z,5.60
2019-03-05T15:48:34.828Z,6.47
2019-03-05T15:51:01.195Z,4.80
2019-03-05T15:53:27.781Z,4.23
2019-03-05T15:55:56.073Z,3.13
2019-03-05T15:58:22.371Z,5.20
2019-03-05T16:00:48.630Z,9.33
2019-03-05T16:03:14.987Z,4.53
2019-03-05T16:05:41.309Z,5.27
2019-03-05T16:08:07.688Z,6.53
2019-03-05T16:10:33.883Z,3.30
2019-03-05T16:13:00.040Z,4.00
2019-03-05T16:15:26.240Z,4.70
2019-03-05T16:17:54.331Z,5.77
2019-03-05T16:20:20.614Z,3.30
2019-03-05T16:22:46.970Z,6.20
2019-03-05T16:25:14.909Z,2.73
2019-03-05T16:27:41.515Z,3.80
2019-03-05T16:30:13.629Z,4.13
2019-03-05T16:32:44.547Z,4.20
2019-03-05T16:35:29.591Z,6.43
2019-03-05T16:38:03.482Z,4.80
2019-03-05T16:40:31.811Z,3.67
2019-03-05T16:42:59.932Z,5.03
2019-03-05T16:45:33.734Z,5.30
2019-03-05T16:48:09.177Z,3.50
2019-03-05T16:50:40.298Z,8.50
2019-03-05T16:53:20.434Z,10.70
2019-03-05T16:55:51.599Z,10.37
2019-03-05T16:58:25.642Z,7.00
2019-03-05T17:01:02.805Z,6.40
2019-03-05T17:03:42.775Z,5.57
2019-03-05T17:06:25.870Z,4.37
2019-03-05T17:08:56.765Z,6.47
2019-03-05T17:11:24.911Z,4.57
2019-03-05T17:13:51.038Z,4.93
2019-03-05T17:16:17.287Z,6.83
2019-03-05T17:18:43.495Z,5.00
2019-03-05T17:21:09.640Z,6.43
2019-03-05T17:23:35.829Z,6.17
2019-03-05T17:26:02.159Z,10.10
2019-03-05T17:28:28.377Z,6.90
2019-03-05T17:30:54.754Z,10.07
2019-03-05T17:33:21.144Z,12.97
2019-03-05T17:35:47.505Z,8.90
2019-03-05T17:38:13.806Z,10.27
2019-03-05T17:40:40.075Z,7.80
2019-03-05T17:43:06.190Z,8.17
2019-03-05T17:45:32.455Z,11.63
2019-03-05T17:47:58.783Z,10.40
2019-03-05T17:50:26.908Z,11.63
2019-03-05T17:52:53.270Z,8.50
2019-03-05T17:55:26.930Z,9.27
2019-03-05T17:57:52.171Z,10.70
2019-03-05T18:00:21.524Z,12.17
2019-03-05T18:02:47.686Z,8.90
2019-03-05T18:05:13.987Z,9.70
2019-03-05T18:07:40.300Z,11.97
2019-03-05T18:10:09.255Z,7.50
2019-03-05T18:12:35.692Z,11.33
2019-03-05T18:15:03.131Z,8.87
2019-03-05T18:17:29.351Z,11.57
2019-03-05T18:19:55.699Z,10.97
2019-03-05T18:22:21.934Z,13.87
2019-03-05T18:24:48.055Z,9.27
2019-03-05T18:27:14.619Z,11.10
2019-03-05T18:29:40.850Z,10.27
2019-03-05T18:32:07.279Z,9.27
2019-03-05T18:34:33.616Z,11.17
2019-03-05T18:36:59.970Z,9.63
2019-03-05T18:39:26.192Z,8.03
2019-03-05T18:41:52.357Z,8.23
2019-03-05T18:44:18.507Z,6.80
2019-03-05T18:46:44.765Z,8.67
2019-03-05T18:49:10.888Z,8.07
2019-03-05T18:51:37.251Z,15.43
2019-03-05T18:54:03.651Z,18.23
2019-03-05T18:56:29.887Z,13.93
2019-03-05T18:58:56.139Z,9.00
2019-03-05T19:01:22.407Z,9.10
2019-03-05T19:03:48.796Z,14.33
2019-03-05T19:06:15.052Z,27.73
2019-03-05T19:08:41.171Z,18.77
2019-03-05T19:11:07.448Z,12.83
2019-03-05T19:13:33.685Z,8.97
2019-03-05T19:16:00.498Z,8.93
2019-03-05T19:18:26.701Z,8.13
2019-03-05T19:20:53.127Z,8.53
2019-03-05T19:23:19.501Z,8.17
2019-03-05T19:25:46.072Z,5.57
2019-03-05T19:28:12.531Z,6.37
2019-03-05T19:30:40.707Z,7.77
2019-03-05T19:33:07.024Z,12.63
2019-03-05T19:35:33.546Z,15.20
2019-03-05T19:37:59.775Z,7.27
2019-03-05T19:40:40.465Z,7.17
2019-03-05T19:43:06.791Z,6.20
2019-03-05T19:45:33.275Z,6.50
2019-03-05T19:47:59.766Z,7.43
2019-03-05T19:50:26.117Z,6.33
2019-03-05T19:52:52.386Z,8.07
2019-03-05T19:55:20.771Z,8.63
2019-03-05T19:57:47.092Z,6.60
2019-03-05T20:00:21.249Z,8.20
2019-03-05T20:02:47.777Z,7.57
2019-03-05T20:05:15.344Z,6.30
2019-03-05T20:07:41.451Z,7.23
2019-03-05T20:10:11.401Z,5.80
2019-03-05T20:12:37.612Z,5.33
2019-03-05T20:15:07.578Z,9.33
2019-03-05T20:17:33.707Z,5.00
2019-03-05T20:20:00.049Z,7.73
2019-03-05T20:22:26.283Z,4.87
2019-03-05T20:24:52.520Z,7.10
2019-03-05T20:27:18.953Z,6.43
2019-03-05T20:29:45.351Z,6.67
2019-03-05T20:32:11.452Z,5.10
2019-03-05T20:34:37.929Z,4.60
2019-03-05T20:37:04.219Z,6.50
2019-03-05T20:39:33.422Z,5.03
2019-03-05T20:42:03.694Z,8.50
2019-03-05T20:44:29.935Z,4.90
2019-03-05T20:46:56.174Z,6.40
2019-03-05T20:49:22.583Z,7.10
2019-03-05T20:51:48.938Z,5.53
2019-03-05T20:54:15.264Z,8.17
2019-03-05T20:56:43.443Z,4.73
2019-03-05T20:59:09.671Z,5.13
2019-03-05T21:01:35.926Z,7.90
2019-03-05T21:04:02.565Z,5.57
2019-03-05T21:06:28.707Z,6.07
2019-03-05T21:08:54.982Z,6.47
2019-03-05T21:11:21.405Z,6.13
2019-03-05T21:13:47.550Z,6.43
2019-03-05T21:16:13.880Z,4.47
2019-03-05T21:18:40.212Z,4.10
2019-03-05T21:21:06.428Z,4.80
2019-03-05T21:23:32.717Z,10.57
2019-03-05T21:25:58.945Z,22.60
2019-03-05T21:28:25.104Z,12.73
2019-03-05T21:30:51.291Z,12.67
2019-03-05T21:33:17.421Z,9.40
2019-03-05T21:35:43.652Z,7.00
2019-03-05T21:38:09.914Z,7.23
2019-03-05T21:40:36.175Z,11.27
2019-03-05T21:43:05.436Z,7.27
2019-03-05T21:45:38.479Z,7.53
2019-03-05T21:48:04.894Z,4.90
2019-03-05T21:50:31.120Z,6.20
2019-03-05T21:52:57.284Z,7.93
2019-03-05T21:55:23.627Z,8.20
2019-03-05T21:57:49.734Z,8.90
2019-03-05T22:00:24.102Z,7.67
2019-03-05T22:02:50.403Z,6.23
2019-03-05T22:05:16.770Z,6.77
2019-03-05T22:07:43.139Z,6.47
2019-03-05T22:10:17.552Z,5.37
2019-03-05T22:12:43.944Z,7.77
2019-03-05T22:15:15.716Z,7.10
2019-03-05T22:17:41.926Z,4.10
2019-03-05T22:20:10.364Z,6.13
2019-03-05T22:22:36.554Z,4.57
2019-03-05T22:25:05.293Z,5.00
2019-03-05T22:27:31.515Z,4.60
2019-03-05T22:29:57.650Z,7.27
2019-03-05T22:32:23.955Z,6.67
2019-03-05T22:34:50.076Z,5.37
2019-03-05T22:37:16.319Z,4.43
2019-03-05T22:39:42.528Z,5.90
2019-03-05T22:42:09.076Z,6.13
2019-03-05T22:44:35.425Z,5.17
2019-03-05T22:47:01.766Z,5.37
2019-03-05T22:49:27.884Z,4.67
2019-03-05T22:51:54.035Z,6.87
2019-03-05T22:54:20.155Z,4.73
2019-03-05T22:56:46.691Z,7.20
2019-03-05T22:59:12.782Z,7.03
2019-03-05T23:01:39.547Z,6.43
2019-03-05T23:04:05.859Z,6.00
2019-03-05T23:06:32.291Z,10.87
2019-03-05T23:08:58.721Z,8.57
2019-03-05T23:11:25.708Z,6.30
2019-03-05T23:13:52.050Z,5.37
2019-03-05T23:16:19.048Z,5.83
2019-03-05T23:18:45.279Z,5.40
2019-03-05T23:21:11.875Z,8.23
2019-03-05T23:23:38.220Z,9.00
2019-03-05T23:26:05.436Z,11.07
2019-03-05T23:28:31.766Z,8.00
2019-03-05T23:30:58.086Z,7.87
2019-03-05T23:33:24.618Z,11.23
2019-03-05T23:35:50.829Z,8.83
2019-03-05T23:38:16.970Z,12.87
2019-03-05T23:40:43.065Z,10.07
2019-03-05T23:43:09.470Z,8.40
2019-03-05T23:45:35.860Z,8.97
2019-03-05T23:48:02.179Z,7.57
2019-03-05T23:50:28.328Z,8.93
2019-03-05T23:52:54.463Z,8.00
2019-03-05T23:55:20.616Z,9.20
2019-03-05T23:57:46.916Z,9.93
